Time;durP1;ratioP1;P1;durP2;ratioP2;P2;SDS_P1;SDS_P2;PMS_P1;PMS_P2;Temp;Humidity;BMP_temperature;BMP_pressure;BME280_temperature;BME280_humidity;BME280_pressure;Samples;Min_cycle;Max_cycle;Signal;HPM_P1;HPM_P2
2022/05/27 00:00:55;;;;;;;;;;;21.70;60.50;;;;;;6184602;23;19924;-79
2022/05/27 00:03:22;;;;;;;;;;;21.70;60.40;;;;;;6158472;23;20318;-78
2022/05/27 00:05:50;;;;;;;;;;;21.70;60.20;;;;;;6158238;23;19924;-79
2022/05/27 00:08:17;;;;;;;;;;;21.70;60.10;;;;;;6157789;23;19921;-78
2022/05/27 00:10:44;;;;;;;;;;;21.70;60.10;;;;;;6158485;23;19920;-78
2022/05/27 00:13:10;;;;;;;;;;;21.70;60.20;;;;;;6157395;23;19927;-79
2022/05/27 00:15:37;;;;;;;;;;;21.60;60.50;;;;;;6158361;23;19920;-78
2022/05/27 00:18:04;;;;;;;;;;;21.60;60.70;;;;;;6158456;23;20303;-81
2022/05/27 00:20:31;;;;;;;;;;;21.60;61.00;;;;;;6157694;23;19920;-81
2022/05/27 00:22:57;;;;;;;;;;;21.60;61.20;;;;;;6158292;23;19947;-79
2022/05/27 00:25:24;;;;;;;;;;;21.60;61.40;;;;;;6157236;23;20368;-79
2022/05/27 00:27:51;;;;;;;;;;;21.50;61.50;;;;;;6158385;23;19921;-78
2022/05/27 00:30:19;;;;;;;;;;;21.50;61.30;;;;;;6157208;23;19923;-78
2022/05/27 00:32:45;;;;;;;;;;;21.50;61.20;;;;;;6158205;23;19996;-79
2022/05/27 00:35:12;;;;;;;;;;;21.50;61.40;;;;;;6157737;23;19963;-81
2022/05/27 00:37:39;;;;;;;;;;;21.50;61.50;;;;;;6157605;23;19920;-79
2022/05/27 00:40:06;;;;;;;;;;;21.50;61.30;;;;;;6183037;23;19920;-81
2022/05/27 00:42:37;;;;;;;;;;;21.40;61.30;;;;;;6157280;23;20252;-81
2022/05/27 00:45:04;;;;;;;;;;;21.50;61.50;;;;;;6158388;23;19920;-79
2022/05/27 00:47:33;;;;;;;;;;;21.40;61.80;;;;;;6157171;23;19920;-79
2022/05/27 00:50:03;;;;;;;;;;;21.40;61.90;;;;;;6158384;23;19948;-79
2022/05/27 00:52:31;;;;;;;;;;;21.40;62.10;;;;;;6157355;23;19928;-79
2022/05/27 00:54:59;;;;;;;;;;;21.30;62.30;;;;;;6157797;23;19920;-79
2022/05/27 00:57:30;;;;;;;;;;;21.30;62.00;;;;;;6157070;23;20387;-78
2022/05/27 01:00:12;;;;;;;;;;;21.30;62.20;;;;;;6157968;23;19920;-78
2022/05/27 01:02:39;;;;;;;;;;;21.30;62.10;;;;;;6157741;23;19995;-78
2022/05/27 01:05:07;;;;;;;;;;;21.30;62.50;;;;;;6158530;23;19943;-82
2022/05/27 01:07:34;;;;;;;;;;;21.20;62.60;;;;;;6157808;23;20330;-81
2022/05/27 01:10:02;;;;;;;;;;;21.20;62.50;;;;;;6182781;23;19971;-79
2022/05/27 01:12:37;;;;;;;;;;;21.20;62.70;;;;;;6157266;23;19975;-78
2022/05/27 01:15:23;;;;;;;;;;;21.20;62.50;;;;;;6158374;23;19953;-79
2022/05/27 01:17:59;;;;;;;;;;;21.10;62.80;;;;;;6156645;23;19963;-78
2022/05/27 01:20:26;;;;;;;;;;;21.10;62.90;;;;;;6183144;23;20337;-79
2022/05/27 01:23:08;;;;;;;;;;;21.10;63.00;;;;;;6158019;23;20396;-79
2022/05/27 01:25:53;;;;;;;;;;;21.10;63.20;;;;;;6185708;23;19986;-79
2022/05/27 01:28:38;;;;;;;;;;;21.00;63.30;;;;;;6159347;23;19924;-78
2022/05/27 01:31:09;;;;;;;;;;;21.00;62.90;;;;;;6159588;23;19932;-81
2022/05/27 01:33:39;;;;;;;;;;;21.00;62.80;;;;;;6159341;23;19970;-78
2022/05/27 01:36:21;;;;;;;;;;;21.00;62.80;;;;;;6160124;23;19920;-79
2022/05/27 01:38:55;;;;;;;;;;;21.00;62.80;;;;;;6159601;23;19920;-81
2022/05/27 01:41:31;;;;;;;;;;;21.00;63.10;;;;;;6159939;23;19920;-79
2022/05/27 01:44:01;;;;;;;;;;;21.00;63.10;;;;;;6159379;23;19920;-82
2022/05/27 01:46:27;;;;;;;;;;;21.00;63.10;;;;;;6184796;23;19920;-78
2022/05/27 01:49:20;;;;;;;;;;;21.00;63.10;;;;;;6158719;23;20261;-80
2022/05/27 01:52:06;;;;;;;;;;;21.00;63.30;;;;;;6136515;23;19952;-81
2022/05/27 01:54:39;;;;;;;;;;;21.00;63.10;;;;;;6159745;23;19920;-79
2022/05/27 01:57:18;;;;;;;;;;;21.00;63.00;;;;;;6184733;23;20322;-79
2022/05/27 02:00:07;;;;;;;;;;;20.90;62.80;;;;;;6159318;23;19924;-79
2022/05/27 02:02:37;;;;;;;;;;;20.90;63.00;;;;;;6152385;23;19970;-79
2022/05/27 02:05:07;;;;;;;;;;;20.90;63.60;;;;;;6158316;23;20352;-80
2022/05/27 02:07:52;;;;;;;;;;;20.80;63.40;;;;;;6184124;23;20431;-79
2022/05/27 02:10:32;;;;;;;;;;;20.80;63.70;;;;;;6158903;23;19920;-79
2022/05/27 02:13:05;;;;;;;;;;;20.80;63.70;;;;;;6158905;23;20285;-79
2022/05/27 02:15:35;;;;;;;;;;;20.80;63.70;;;;;;6159820;23;19971;-79
2022/05/27 02:18:08;;;;;;;;;;;20.70;63.70;;;;;;6183290;23;19920;-79
2022/05/27 02:20:38;;;;;;;;;;;20.60;64.10;;;;;;6159599;23;19931;-79
2022/05/27 02:23:17;;;;;;;;;;;20.60;63.90;;;;;;6185192;23;19925;-82
2022/05/27 02:25:45;;;;;;;;;;;20.60;64.00;;;;;;6160336;23;19924;-79
2022/05/27 02:28:12;;;;;;;;;;;20.60;64.00;;;;;;6158111;23;19944;-80
2022/05/27 02:30:40;;;;;;;;;;;20.60;64.00;;;;;;6159070;23;19921;-80
2022/05/27 02:35:58;;;;;;;;;;;20.60;63.70;;;;;;6185460;23;19924;-83
2022/05/27 02:38:26;;;;;;;;;;;20.60;64.10;;;;;;6158564;23;19924;-79
2022/05/27 02:40:59;;;;;;;;;;;20.50;64.30;;;;;;6159296;23;19970;-80
2022/05/27 02:43:31;;;;;;;;;;;20.50;64.40;;;;;;6159204;23;19920;-83
2022/05/27 02:46:04;;;;;;;;;;;20.50;64.50;;;;;;6160220;23;20018;-82
2022/05/27 02:48:50;;;;;;;;;;;20.50;64.60;;;;;;6159318;23;19920;-79
2022/05/27 02:51:35;;;;;;;;;;;20.40;64.80;;;;;;6158594;23;19970;-82
2022/05/27 02:54:20;;;;;;;;;;;20.40;64.60;;;;;;6158834;23;19951;-82
2022/05/27 02:57:02;;;;;;;;;;;20.40;64.50;;;;;;6158678;23;19978;-80
2022/05/27 02:59:30;;;;;;;;;;;20.40;64.20;;;;;;6158370;23;19970;-82
2022/05/27 03:02:23;;;;;;;;;;;20.40;64.30;;;;;;6159053;23;20383;-79
2022/05/27 03:04:52;;;;;;;;;;;20.40;64.30;;;;;;6155850;23;20396;-80
2022/05/27 03:07:19;;;;;;;;;;;20.30;64.40;;;;;;6158960;23;20235;-82
2022/05/27 03:09:46;;;;;;;;;;;20.30;64.60;;;;;;6157810;23;20300;-80
2022/05/27 03:12:28;;;;;;;;;;;20.30;65.70;;;;;;6159010;23;19921;-79
2022/05/27 03:15:13;;;;;;;;;;;20.30;64.80;;;;;;6158245;23;19979;-79
2022/05/27 03:17:49;;;;;;;;;;;20.30;64.70;;;;;;6158132;23;19932;-81
2022/05/27 03:20:26;;;;;;;;;;;20.30;64.70;;;;;;6159389;23;19994;-80
2022/05/27 03:22:52;;;;;;;;;;;20.20;64.80;;;;;;6158452;23;19974;-83
2022/05/27 03:25:25;;;;;;;;;;;20.20;64.80;;;;;;6159335;23;19920;-83
2022/05/27 03:27:52;;;;;;;;;;;20.20;64.80;;;;;;6158113;23;19974;-80
2022/05/27 03:30:21;;;;;;;;;;;20.10;65.10;;;;;;6159006;23;19990;-83
2022/05/27 03:32:51;;;;;;;;;;;20.10;64.90;;;;;;6158024;23;20321;-81
2022/05/27 03:35:24;;;;;;;;;;;20.10;64.70;;;;;;6158855;23;19920;-80
2022/05/27 03:38:06;;;;;;;;;;;20.20;64.80;;;;;;6158684;23;20289;-83
2022/05/27 03:40:43;;;;;;;;;;;20.10;64.90;;;;;;6158262;23;19921;-80
2022/05/27 03:43:10;;;;;;;;;;;20.10;64.40;;;;;;6159110;23;19924;-83
2022/05/27 03:45:56;;;;;;;;;;;20.10;64.70;;;;;;6157752;23;19920;-79
2022/05/27 03:48:24;;;;;;;;;;;20.10;64.70;;;;;;6159289;23;19932;-80
2022/05/27 03:50:53;;;;;;;;;;;20.10;64.40;;;;;;6157615;23;19966;-80
2022/05/27 03:53:20;;;;;;;;;;;20.10;65.60;;;;;;6158881;23;20412;-82
2022/05/27 03:55:46;;;;;;;;;;;20.10;64.50;;;;;;6157945;23;19946;-79
2022/05/27 03:58:14;;;;;;;;;;;20.10;64.60;;;;;;6158941;23;20265;-83
2022/05/27 04:00:42;;;;;;;;;;;20.10;64.30;;;;;;6158271;23;20233;-80
2022/05/27 04:03:09;;;;;;;;;;;20.10;64.30;;;;;;6158268;23;20337;-79
2022/05/27 04:05:37;;;;;;;;;;;20.10;64.30;;;;;;6157852;23;19920;-78
2022/05/27 04:08:05;;;;;;;;;;;20.10;64.30;;;;;;6159069;23;20364;-79
2022/05/27 04:10:31;;;;;;;;;;;20.10;64.30;;;;;;6158513;23;19920;-82
2022/05/27 04:12:58;;;;;;;;;;;20.10;64.10;;;;;;6157949;23;20235;-82
2022/05/27 04:15:25;;;;;;;;;;;20.10;64.30;;;;;;6158911;23;19932;-80
2022/05/27 04:17:52;;;;;;;;;;;20.10;64.30;;;;;;6158197;23;19987;-82
2022/05/27 04:20:19;;;;;;;;;;;20.10;64.20;;;;;;6158468;23;19920;-79
2022/05/27 04:22:46;;;;;;;;;;;20.10;64.50;;;;;;6157765;23;19955;-79
2022/05/27 04:25:14;;;;;;;;;;;20.00;64.50;;;;;;6158902;23;19987;-79
2022/05/27 04:27:41;;;;;;;;;;;20.00;64.80;;;;;;6157569;23;20253;-80
2022/05/27 04:30:09;;;;;;;;;;;20.00;64.60;;;;;;6157552;23;19920;-83
2022/05/27 04:32:36;;;;;;;;;;;20.00;64.30;;;;;;6157673;23;20179;-82
2022/05/27 04:35:03;;;;;;;;;;;20.00;64.40;;;;;;6157929;23;19924;-82
2022/05/27 04:37:30;;;;;;;;;;;20.00;64.60;;;;;;6183704;23;19920;-79
2022/05/27 04:39:57;;;;;;;;;;;20.00;64.40;;;;;;6157497;23;19920;-79
2022/05/27 04:42:24;;;;;;;;;;;20.10;64.00;;;;;;6158535;23;19924;-79
2022/05/27 04:44:51;;;;;;;;;;;20.10;63.90;;;;;;6157354;23;19927;-80
2022/05/27 04:47:18;;;;;;;;;;;20.10;63.80;;;;;;6184220;23;20321;-80
2022/05/27 04:49:50;;;;;;;;;;;20.20;63.60;;;;;;6181826;23;19955;-82
2022/05/27 04:52:20;;;;;;;;;;;20.20;63.30;;;;;;6158473;23;19920;-83
2022/05/27 04:54:47;;;;;;;;;;;20.30;63.30;;;;;;6157661;23;19920;-79
2022/05/27 04:57:16;;;;;;;;;;;20.20;63.00;;;;;;6158184;23;19924;-79
2022/05/27 04:59:45;;;;;;;;;;;20.20;63.10;;;;;;6158997;23;19966;-79
2022/05/27 05:02:14;;;;;;;;;;;20.30;62.70;;;;;;6184995;23;19924;-79
2022/05/27 05:04:40;;;;;;;;;;;20.30;62.80;;;;;;6159747;23;19970;-80
2022/05/27 05:07:08;;;;;;;;;;;20.30;62.70;;;;;;6160467;23;20373;-83
2022/05/27 05:09:36;;;;;;;;;;;20.30;62.60;;;;;;6160338;23;19920;-80
2022/05/27 05:12:03;;;;;;;;;;;20.30;62.30;;;;;;6159974;23;20341;-81
2022/05/27 05:14:30;;;;;;;;;;;20.40;62.00;;;;;;6186497;23;19927;-82
2022/05/27 05:16:57;;;;;;;;;;;20.40;61.80;;;;;;6159438;23;19924;-81
2022/05/27 05:19:24;;;;;;;;;;;20.50;61.70;;;;;;6160582;23;19928;-80
2022/05/27 05:21:50;;;;;;;;;;;20.50;61.50;;;;;;6159345;23;19971;-79
2022/05/27 05:24:17;;;;;;;;;;;20.50;61.30;;;;;;6160083;23;19967;-80
2022/05/27 05:26:44;;;;;;;;;;;20.60;61.50;;;;;;6158918;23;20345;-79
2022/05/27 05:29:10;;;;;;;;;;;20.60;61.50;;;;;;6159940;23;19968;-80
2022/05/27 05:31:37;;;;;;;;;;;20.50;61.60;;;;;;6159885;23;19920;-80
2022/05/27 05:34:04;;;;;;;;;;;20.50;61.70;;;;;;6185355;23;19924;-80
2022/05/27 05:36:31;;;;;;;;;;;20.60;61.40;;;;;;6159767;23;19921;-79
2022/05/27 05:38:58;;;;;;;;;;;20.60;61.10;;;;;;6159256;23;19974;-79
2022/05/27 05:41:29;;;;;;;;;;;20.60;61.30;;;;;;6159993;23;19924;-79
2022/05/27 05:43:56;;;;;;;;;;;20.70;60.90;;;;;;6158651;23;19925;-82
2022/05/27 05:46:24;;;;;;;;;;;20.70;61.10;;;;;;6159977;23;19928;-79
2022/05/27 05:48:51;;;;;;;;;;;20.70;61.00;;;;;;6158911;23;19967;-79
2022/05/27 05:51:19;;;;;;;;;;;20.70;61.00;;;;;;6185866;23;19920;-82
2022/05/27 05:53:46;;;;;;;;;;;20.70;60.80;;;;;;6159180;23;19928;-79
2022/05/27 05:56:13;;;;;;;;;;;20.70;60.80;;;;;;6159784;23;19920;-79
2022/05/27 05:58:40;;;;;;;;;;;20.80;60.50;;;;;;6160119;23;19932;-79
2022/05/27 06:01:07;;;;;;;;;;;20.80;60.50;;;;;;6158710;23;19920;-79
2022/05/27 06:03:34;;;;;;;;;;;20.90;60.30;;;;;;6159888;23;19920;-80
2022/05/27 06:06:01;;;;;;;;;;;21.00;60.00;;;;;;6158775;23;20345;-82
2022/05/27 06:08:27;;;;;;;;;;;21.00;59.80;;;;;;6160036;23;19924;-78
2022/05/27 06:10:54;;;;;;;;;;;21.00;59.90;;;;;;6158651;23;20261;-80
2022/05/27 06:13:21;;;;;;;;;;;21.00;60.00;;;;;;6159617;23;19975;-79
2022/05/27 06:15:48;;;;;;;;;;;21.10;59.70;;;;;;6158708;23;20359;-83
2022/05/27 06:18:15;;;;;;;;;;;21.10;59.60;;;;;;6159320;23;19924;-79
2022/05/27 06:20:42;;;;;;;;;;;21.20;59.00;;;;;;6159841;23;19920;-80
2022/05/27 06:23:09;;;;;;;;;;;21.30;59.30;;;;;;6158985;23;19943;-80
2022/05/27 06:25:38;;;;;;;;;;;21.30;58.90;;;;;;6159588;23;19925;-80
2022/05/27 06:36:21;;;;;;;;;;;21.60;58.50;;;;;;6185146;23;19920;-80
2022/05/27 06:38:48;;;;;;;;;;;21.60;58.70;;;;;;6159800;23;19971;-83
2022/05/27 06:41:15;;;;;;;;;;;21.70;58.80;;;;;;6159434;23;19979;-82
2022/05/27 06:43:42;;;;;;;;;;;21.80;58.20;;;;;;6159619;23;19967;-83
2022/05/27 06:46:09;;;;;;;;;;;21.80;58.00;;;;;;6183246;23;19921;-79
2022/05/27 06:48:35;;;;;;;;;;;21.90;57.70;;;;;;6159072;23;19974;-79
2022/05/27 06:51:06;;;;;;;;;;;22.00;56.90;;;;;;6182874;23;19927;-80
2022/05/27 06:53:32;;;;;;;;;;;22.10;57.20;;;;;;6185343;23;19921;-79
2022/05/27 06:55:59;;;;;;;;;;;22.20;56.80;;;;;;6158292;23;19924;-80
2022/05/27 06:58:26;;;;;;;;;;;22.20;55.90;;;;;;6158963;23;19948;-79
2022/05/27 07:00:54;;;;;;;;;;;22.30;56.00;;;;;;6184665;23;20330;-79
2022/05/27 07:03:21;;;;;;;;;;;22.40;56.00;;;;;;6158284;23;19920;-83
2022/05/27 07:05:48;;;;;;;;;;;22.50;55.90;;;;;;6159329;23;19920;-79
2022/05/27 07:08:14;;;;;;;;;;;22.60;55.70;;;;;;6184074;23;19924;-79
2022/05/27 07:10:42;;;;;;;;;;;22.70;55.90;;;;;;6158729;23;19920;-83
2022/05/27 07:13:09;;;;;;;;;;;22.80;55.60;;;;;;6158167;23;19994;-78
2022/05/27 07:15:36;;;;;;;;;;;22.90;55.30;;;;;;6159008;23;19974;-79
2022/05/27 07:18:04;;;;;;;;;;;23.00;54.90;;;;;;6158348;23;20300;-83
2022/05/27 07:20:31;;;;;;;;;;;23.10;55.70;;;;;;6183376;23;19920;-79
2022/05/27 07:22:57;;;;;;;;;;;23.30;55.10;;;;;;6183206;23;19920;-80
2022/05/27 07:25:26;;;;;;;;;;;23.40;54.50;;;;;;6158613;23;19992;-79
2022/05/27 07:27:53;;;;;;;;;;;23.50;55.10;;;;;;6158895;23;19928;-83
2022/05/27 07:30:20;;;;;;;;;;;23.60;54.10;;;;;;6158589;23;19971;-84
2022/05/27 07:32:48;;;;;;;;;;;23.80;53.60;;;;;;6158894;23;19931;-79
2022/05/27 07:35:16;;;;;;;;;;;24.00;52.50;;;;;;6158258;23;20257;-80
2022/05/27 07:37:42;;;;;;;;;;;24.20;52.00;;;;;;6159139;23;19951;-83
2022/05/27 07:40:09;;;;;;;;;;;24.40;51.50;;;;;;6158066;23;19924;-83
2022/05/27 07:42:37;;;;;;;;;;;24.50;51.10;;;;;;6159583;23;19940;-79
2022/05/27 07:45:07;;;;;;;;;;;24.60;50.70;;;;;;6158339;23;19924;-83
2022/05/27 07:47:33;;;;;;;;;;;24.70;50.50;;;;;;6158789;23;20300;-83
2022/05/27 07:50:00;;;;;;;;;;;24.90;50.50;;;;;;6158278;23;19920;-79
2022/05/27 07:52:27;;;;;;;;;;;25.10;49.90;;;;;;6157704;23;19975;-78
2022/05/27 07:54:55;;;;;;;;;;;25.20;49.00;;;;;;6184874;23;19927;-79
2022/05/27 07:57:27;;;;;;;;;;;25.20;49.10;;;;;;6158258;23;19999;-80
2022/05/27 07:59:53;;;;;;;;;;;25.30;48.60;;;;;;6158671;23;19921;-83
2022/05/27 08:02:21;;;;;;;;;;;25.40;48.40;;;;;;6157722;23;19920;-79
2022/05/27 08:04:48;;;;;;;;;;;25.60;48.00;;;;;;6185739;23;19920;-83
2022/05/27 08:07:15;;;;;;;;;;;25.70;48.30;;;;;;6158085;23;19975;-79
2022/05/27 08:09:42;;;;;;;;;;;25.90;47.20;;;;;;6159472;23;19944;-79
2022/05/27 08:12:09;;;;;;;;;;;25.90;48.00;;;;;;6156988;23;19920;-79
2022/05/27 08:14:36;;;;;;;;;;;26.00;47.50;;;;;;6158625;23;19957;-80
2022/05/27 08:17:03;;;;;;;;;;;26.20;46.30;;;;;;6159648;23;19964;-83
2022/05/27 08:19:29;;;;;;;;;;;26.20;45.90;;;;;;6183170;23;19921;-79
2022/05/27 08:21:56;;;;;;;;;;;26.20;45.90;;;;;;6157345;23;20404;-79
2022/05/27 08:24:23;;;;;;;;;;;26.30;46.50;;;;;;6157358;23;19996;-79
2022/05/27 08:26:51;;;;;;;;;;;26.40;48.10;;;;;;6159607;23;19927;-79
2022/05/27 08:29:17;;;;;;;;;;;26.50;46.20;;;;;;6157646;23;20364;-83
2022/05/27 08:31:44;;;;;;;;;;;26.50;46.50;;;;;;6159701;23;19971;-80
2022/05/27 08:39:46;;;;;;;;;;;26.70;47.50;;;;;;6183083;23;20399;-80
2022/05/27 08:42:31;;;;;;;1.17;0.80;;;26.90;46.80;;;;;;6183466;23;19927;-79
2022/05/27 08:45:19;;;;;;;1.90;0.98;;;26.90;46.30;;;;;;6156361;23;20371;-79
2022/05/27 08:47:52;;;;;;;3.40;0.77;;;27.10;47.10;;;;;;6156769;23;20369;-79
2022/05/27 08:50:38;;;;;;;3.30;0.90;;;27.30;47.30;;;;;;6183810;23;20751;-79
2022/05/27 08:53:31;;;;;;;3.30;0.90;;;27.60;47.30;;;;;;6155469;23;20426;-78
2022/05/27 08:59:26;;;;;;;1.70;0.60;;;27.80;45.60;;;;;;6181695;23;20373;-83
2022/05/27 09:02:02;;;;;;;1.67;0.80;;;28.00;45.80;;;;;;6156235;23;20377;-79
2022/05/27 09:04:38;;;;;;;2.95;0.80;;;28.10;44.30;;;;;;6155300;23;20407;-79
2022/05/27 09:07:22;;;;;;;1.90;0.80;;;28.10;44.20;;;;;;6155561;23;20426;-79
2022/05/27 09:09:50;;;;;;;1.30;0.70;;;28.10;42.50;;;;;;6180931;23;20513;-79
2022/05/27 09:12:23;;;;;;;2.07;0.80;;;28.10;43.30;;;;;;6156334;23;20411;-83
2022/05/27 09:14:54;;;;;;;2.80;0.90;;;28.20;43.40;;;;;;6155397;23;20427;-79
2022/05/27 09:17:42;;;;;;;2.20;0.88;;;28.30;43.60;;;;;;6156082;23;20411;-79
2022/05/27 09:20:34;;;;;;;2.08;1.20;;;28.40;44.30;;;;;;6154700;23;20368;-79
2022/05/27 09:23:06;;;;;;;2.10;0.93;;;28.50;44.10;;;;;;6154526;23;20380;-79
2022/05/27 09:26:01;;;;;;;2.25;1.20;;;28.50;44.40;;;;;;6155804;23;20423;-79
2022/05/27 09:28:31;;;;;;;2.00;1.48;;;28.60;44.40;;;;;;6180471;23;20427;-79
2022/05/27 09:31:00;;;;;;;4.18;2.03;;;28.60;44.90;;;;;;6154154;23;20403;-79
2022/05/27 09:33:30;;;;;;;3.45;1.50;;;28.70;44.20;;;;;;6150468;23;20369;-82
2022/05/27 09:36:15;;;;;;;2.53;1.40;;;28.70;44.60;;;;;;6151386;23;20370;-80
2022/05/27 09:38:52;;;;;;;2.63;1.85;;;28.90;45.50;;;;;;6174630;23;20694;-80
2022/05/27 09:41:37;;;;;;;3.72;1.20;;;28.90;43.30;;;;;;6149878;23;20437;-83
2022/05/27 09:44:35;;;;;;;2.78;1.60;;;29.00;44.60;;;;;;6150988;23;20786;-84
2022/05/27 09:47:03;;;;;;;2.97;1.47;;;29.10;44.80;;;;;;6152702;23;20374;-80
2022/05/27 09:49:31;;;;;;;2.17;1.55;;;29.30;45.30;;;;;;6152500;23;20378;-80
2022/05/27 09:51:59;;;;;;;4.38;1.80;;;29.40;44.50;;;;;;6151055;23;20440;-80
2022/05/27 09:54:50;;;;;;;1.83;1.42;;;29.40;43.50;;;;;;6152810;23;20374;-79
2022/05/27 09:57:25;;;;;;;3.33;1.48;;;29.30;43.70;;;;;;6176860;23;20377;-80
2022/05/27 10:00:02;;;;;;;3.33;1.70;;;29.20;43.80;;;;;;6153477;23;20882;-84
2022/05/27 10:02:34;;;;;;;2.92;1.60;;;29.30;45.00;;;;;;6176622;23;20381;-80
2022/05/27 10:05:06;;;;;;;3.10;1.48;;;29.40;44.70;;;;;;6152657;23;20374;-80
2022/05/27 10:07:43;;;;;;;3.75;1.60;;;29.50;45.20;;;;;;6149980;23;20381;-81
2022/05/27 10:10:22;;;;;;;3.50;1.80;;;29.60;44.60;;;;;;6150953;23;20378;-79
2022/05/27 10:12:49;;;;;;;2.83;2.03;;;29.80;43.40;;;;;;6152157;23;20382;-84
2022/05/27 10:15:30;;;;;;;2.75;1.45;;;29.80;43.20;;;;;;6151724;23;20429;-79
2022/05/27 10:18:12;;;;;;;3.63;1.95;;;29.80;43.90;;;;;;6151938;23;20441;-79
2022/05/27 10:20:40;;;;;;;2.90;1.70;;;29.70;44.30;;;;;;6150577;23;20378;-83
2022/05/27 10:23:20;;;;;;;4.78;1.60;;;29.70;43.90;;;;;;6151490;23;20433;-80
2022/05/27 10:25:47;;;;;;;4.47;1.93;;;29.80;44.60;;;;;;6127411;23;20742;-78
2022/05/27 10:28:25;;;;;;;3.17;1.52;;;29.80;43.60;;;;;;6152352;23;20413;-79
2022/05/27 10:31:02;;;;;;;2.03;1.60;;;29.80;44.50;;;;;;6151886;23;20370;-79
2022/05/27 10:33:38;;;;;;;2.10;1.30;;;29.80;44.30;;;;;;6151793;23;20779;-83
2022/05/27 10:36:28;;;;;;;1.92;1.50;;;30.00;43.50;;;;;;6152804;23;20731;-79
2022/05/27 10:39:10;;;;;;;3.67;1.33;;;30.10;43.70;;;;;;6152356;23;20378;-79
2022/05/27 10:41:53;;;;;;;2.92;1.50;;;30.10;43.40;;;;;;6151725;23;20394;-79
2022/05/27 10:44:26;;;;;;;2.85;1.73;;;30.10;43.40;;;;;;6151778;23;20378;-79
2022/05/27 10:46:56;;;;;;;3.60;1.63;;;30.20;43.50;;;;;;6151338;23;20723;-78
2022/05/27 10:50:00;;;;;;;3.30;1.80;;;30.20;43.10;;;;;;6152307;23;20863;-80
2022/05/27 10:52:57;;;;;;;2.45;1.33;;;30.10;44.60;;;;;;6151740;23;20374;-80
2022/05/27 10:55:47;;;;;;;4.35;1.98;;;30.10;42.80;;;;;;6152938;23;20382;-83
2022/05/27 11:04:34;;;;;;;2.67;1.77;;;30.00;43.20;;;;;;6153000;23;20882;-80
2022/05/27 11:07:23;;;;;;;2.35;1.58;;;30.10;43.40;;;;;;6151469;23;20374;-78
2022/05/27 11:09:58;;;;;;;3.47;1.92;;;30.20;42.40;;;;;;6151141;23;20370;-84
2022/05/27 11:16:04;;;;;;;1.80;1.40;;;29.80;42.80;;;;;;6153224;23;20424;-80
2022/05/27 11:19:04;;;;;;;3.30;2.03;;;29.50;44.30;;;;;;6149522;23;20763;-79
2022/05/27 11:21:44;;;;;;;1.92;1.48;;;29.70;45.40;;;;;;6150665;23;20874;-79
2022/05/27 11:24:40;;;;;;;2.83;1.50;;;29.90;43.80;;;;;;6151492;23;20743;-80
2022/05/27 11:27:44;;;;;;;2.95;1.92;;;30.10;43.10;;;;;;6149658;23;20366;-78
2022/05/27 11:30:29;;;;;;;3.80;2.20;;;30.20;42.40;;;;;;6131665;23;20367;-80
2022/05/27 11:33:22;;;;;;;2.75;1.95;;;30.10;43.80;;;;;;6148779;23;20378;-79
2022/05/27 11:36:10;;;;;;;3.75;2.45;;;30.30;43.20;;;;;;6130744;23;20388;-80
2022/05/27 11:39:18;;;;;;;4.72;2.35;;;30.50;42.50;;;;;;6154420;23;20704;-80
2022/05/27 11:42:07;;;;;;;3.80;2.30;;;30.60;42.50;;;;;;6154289;23;20375;-79
2022/05/27 11:44:44;;;;;;;2.67;2.13;;;30.60;43.10;;;;;;6152651;23;20385;-79
2022/05/27 11:47:17;;;;;;;2.25;1.92;;;30.70;42.60;;;;;;6155270;23;20431;-80
2022/05/27 11:49:50;;;;;;;2.47;2.07;;;30.90;42.70;;;;;;6152902;23;20752;-85
2022/05/27 11:52:36;;;;;;;2.13;1.75;;;31.10;42.70;;;;;;6154584;23;20853;-80
2022/05/27 11:55:32;;;;;;;2.07;1.43;;;31.30;41.80;;;;;;6153427;23;20724;-79
2022/05/27 11:58:28;;;;;;;4.60;2.63;;;31.60;41.60;;;;;;6153636;23;20462;-81
2022/05/27 12:01:31;;;;;;;3.47;2.20;;;31.70;40.70;;;;;;6144440;23;20380;-80
2022/05/27 12:04:09;;;;;;;5.07;2.40;;;31.70;40.00;;;;;;6151241;23;20384;-78
2022/05/27 12:06:39;;;;;;;3.28;2.58;;;31.60;40.00;;;;;;6156058;23;20386;-80
2022/05/27 12:09:45;;;;;;;4.97;2.10;;;31.50;40.00;;;;;;6155578;23;20368;-83
2022/05/27 12:12:42;;;;;;;3.67;2.30;;;31.60;40.30;;;;;;6155169;23;20360;-83
2022/05/27 12:15:22;;;;;;;2.83;2.20;;;31.50;40.20;;;;;;6155439;23;20427;-80
2022/05/27 12:17:52;;;;;;;3.80;2.10;;;31.70;41.00;;;;;;6181890;23;20376;-82
2022/05/27 12:20:32;;;;;;;4.10;2.20;;;31.60;39.00;;;;;;6156245;23;20368;-79
2022/05/27 12:23:04;;;;;;;2.72;1.63;;;31.50;40.40;;;;;;6155886;23;20383;-79
2022/05/27 12:25:37;;;;;;;3.83;1.90;;;31.60;39.40;;;;;;6156228;23;20375;-83
2022/05/27 12:28:05;;;;;;;2.47;1.75;;;31.70;39.90;;;;;;6181126;23;20706;-79
2022/05/27 12:30:40;;;;;;;4.25;3.25;;;31.80;40.60;;;;;;6156257;23;20372;-79
2022/05/27 12:33:14;;;;;;;2.83;1.70;;;31.70;38.40;;;;;;6154702;23;20384;-79
2022/05/27 12:35:44;;;;;;;2.10;1.90;;;31.70;39.80;;;;;;6155977;23;20381;-83
2022/05/27 12:38:25;;;;;;;2.97;1.70;;;31.70;40.10;;;;;;6155379;23;20367;-84
2022/05/27 12:41:05;;;;;;;3.00;1.95;;;32.00;39.80;;;;;;6155351;23;20380;-79
2022/05/27 12:43:38;;;;;;;3.00;1.63;;;32.10;39.80;;;;;;6156485;23;20459;-79
2022/05/27 12:46:05;;;;;;;2.75;1.70;;;32.20;39.70;;;;;;6154968;23;20448;-81
2022/05/27 12:48:42;;;;;;;3.08;2.17;;;32.40;39.70;;;;;;6154620;23;20431;-80
2022/05/27 12:51:14;;;;;;;2.85;2.15;;;32.40;39.00;;;;;;6180660;23;20427;-79
2022/05/27 12:53:52;;;;;;;3.28;1.85;;;32.50;38.40;;;;;;6155938;23;20372;-83
2022/05/27 13:02:14;;;;;;;4.43;2.28;;;33.00;38.40;;;;;;6180372;23;20376;-81
2022/05/27 13:04:44;;;;;;;2.53;1.52;;;33.30;37.80;;;;;;6156017;23;20427;-81
2022/05/27 13:07:11;;;;;;;4.70;1.88;;;33.50;37.70;;;;;;6154840;23;20415;-80
2022/05/27 13:09:44;;;;;;;4.57;2.45;;;33.40;37.40;;;;;;6156905;23;20368;-79
2022/05/27 13:12:46;;;;;;;4.03;1.90;;;33.40;36.80;;;;;;6154045;23;20388;-79
2022/05/27 13:15:53;;;;;;;4.65;2.50;;;33.30;37.30;;;;;;6155040;23;20380;-80
2022/05/27 13:18:36;;;;;;;4.40;2.00;;;33.40;36.80;;;;;;6156435;23;20452;-84
2022/05/27 13:33:10;;;;;;;3.40;1.77;;;33.50;36.20;;;;;;6183391;23;20383;-80
2022/05/27 13:35:44;;;;;;;3.03;1.70;;;33.40;36.50;;;;;;6151822;23;20404;-79
2022/05/27 13:38:15;;;;;;;4.45;2.15;;;33.70;36.30;;;;;;6152705;23;20726;-81
2022/05/27 13:40:43;;;;;;;2.95;1.60;;;33.80;35.80;;;;;;6152197;23;20369;-84
2022/05/27 13:43:17;;;;;;;2.37;1.70;;;33.80;35.10;;;;;;6154808;23;20750;-80
2022/05/27 13:46:07;;;;;;;5.43;2.00;;;33.80;35.60;;;;;;6152239;23;20372;-85
2022/05/27 13:49:02;;;;;;;5.73;2.17;;;34.00;36.50;;;;;;6153165;23;20389;-84
2022/05/27 13:51:29;;;;;;;3.22;1.70;;;34.10;35.50;;;;;;6151564;23;20406;-80
2022/05/27 13:53:57;;;;;;;3.08;1.65;;;34.20;36.20;;;;;;6153281;23;20365;-80
2022/05/27 13:56:34;;;;;;;3.90;2.35;;;34.30;35.80;;;;;;6152112;23;20381;-80
2022/05/27 13:59:13;;;;;;;2.58;2.10;;;34.30;35.30;;;;;;6129572;23;20688;-80
2022/05/27 14:01:55;;;;;;;5.03;1.67;;;34.30;35.80;;;;;;6151902;23;20763;-79
2022/05/27 14:04:33;;;;;;;3.42;2.08;;;34.30;35.50;;;;;;6152189;23;20477;-78
2022/05/27 14:07:01;;;;;;;6.53;1.90;;;34.20;34.40;;;;;;6152603;23;20374;-81
2022/05/27 14:09:32;;;;;;;5.20;2.22;;;34.00;35.30;;;;;;6151654;23;20439;-80
2022/05/27 14:12:10;;;;;;;2.15;1.60;;;34.00;36.00;;;;;;6152355;23;20385;-83
2022/05/27 14:14:44;;;;;;;2.50;1.70;;;34.20;36.20;;;;;;6151671;23;20831;-79
2022/05/27 14:17:16;;;;;;;5.05;2.75;;;34.20;35.10;;;;;;6152380;23;20405;-79
2022/05/27 14:19:44;;;;;;;3.10;2.65;;;34.20;34.90;;;;;;6151485;23;20370;-81
2022/05/27 14:22:40;;;;;;;4.30;2.20;;;33.70;34.90;;;;;;6152678;23;20378;-79
2022/05/27 14:25:23;;;;;;;5.53;3.25;;;33.10;36.40;;;;;;6152081;23;20373;-84
2022/05/27 14:27:53;;;;;;;7.60;4.10;;;32.80;36.80;;;;;;6151894;23;20382;-83
2022/05/27 14:30:25;;;;;;;4.07;2.38;;;32.60;37.50;;;;;;6152413;23;20382;-80
2022/05/27 14:32:52;;;;;;;4.63;2.47;;;32.20;38.60;;;;;;6152801;23;20386;-80
2022/05/27 14:35:27;;;;;;;5.43;3.85;;;32.20;39.40;;;;;;6151329;23;20378;-81
2022/05/27 14:38:00;;;;;;;4.40;3.47;;;32.40;39.80;;;;;;6152464;23;20827;-81
2022/05/27 14:40:46;;;;;;;4.85;3.28;;;32.50;39.50;;;;;;6152299;23;20448;-80
2022/05/27 14:43:35;;;;;;;6.10;3.33;;;32.40;38.90;;;;;;6177275;23;20445;-80
2022/05/27 14:46:23;;;;;;;4.80;2.40;;;32.20;39.20;;;;;;6151370;23;20436;-80
2022/05/27 14:48:55;;;;;;;3.65;2.50;;;32.40;39.20;;;;;;6152795;23;20853;-83
2022/05/27 14:51:40;;;;;;;6.47;3.28;;;32.70;38.60;;;;;;6152458;23;20366;-81
2022/05/27 14:54:28;;;;;;;4.60;2.50;;;32.80;38.50;;;;;;6152540;23;20463;-80
2022/05/27 14:57:16;;;;;;;5.70;3.25;;;32.80;39.10;;;;;;6151553;23;20677;-83
2022/05/27 14:59:47;;;;;;;4.93;3.42;;;33.10;38.90;;;;;;6151812;23;20378;-80
2022/05/27 15:02:32;;;;;;;7.55;4.00;;;33.00;38.40;;;;;;6150366;23;20444;-80